sensor_id;sensor_type;location;lat;lon;timestamp;temperature;humidity
4811;DHT22;2419;51.276;6.472;2023-10-09T00:00:09;15.30;99.90
4811;DHT22;2419;51.276;6.472;2023-10-09T00:02:55;15.40;99.90
4811;DHT22;2419;51.276;6.472;2023-10-09T00:05:25;15.40;99.90
4811;DHT22;2419;51.276;6.472;2023-10-09T00:08:05;15.50;99.90
4811;DHT22;2419;51.276;6.472;2023-10-09T00:10:36;15.50;99.90
4811;DHT22;2419;51.276;6.472;2023-10-09T00:13:15;15.50;99.90
4811;DHT22;2419;51.276;6.472;2023-10-09T00:15:46;15.50;99.90
4811;DHT22;2419;51.276;6.472;2023-10-09T00:18:19;15.60;99.90
4811;DHT22;2419;51.276;6.472;2023-10-09T00:20:56;15.70;99.90
4811;DHT22;2419;51.276;6.472;2023-10-09T00:23:38;15.70;99.90
4811;DHT22;2419;51.276;6.472;2023-10-09T00:26:06;15.80;99.90
4811;DHT22;2419;51.276;6.472;2023-10-09T00:28:47;15.90;99.90
4811;DHT22;2419;51.276;6.472;2023-10-09T00:31:19;15.80;99.90
4811;DHT22;2419;51.276;6.472;2023-10-09T00:33:57;15.80;99.90
4811;DHT22;2419;51.276;6.472;2023-10-09T00:36:34;15.90;99.90
4811;DHT22;2419;51.276;6.472;2023-10-09T00:39:17;15.90;99.90
4811;DHT22;2419;51.276;6.472;2023-10-09T00:42:00;16.00;99.90
4811;DHT22;2419;51.276;6.472;2023-10-09T00:44:29;16.10;99.90
4811;DHT22;2419;51.276;6.472;2023-10-09T00:47:07;16.20;99.90
4811;DHT22;2419;51.276;6.472;2023-10-09T00:49:50;16.20;99.90
4811;DHT22;2419;51.276;6.472;2023-10-09T00:52:26;16.20;99.90
4811;DHT22;2419;51.276;6.472;2023-10-09T00:54:59;16.20;99.90
4811;DHT22;2419;51.276;6.472;2023-10-09T00:57:36;16.20;99.90
4811;DHT22;2419;51.276;6.472;2023-10-09T01:00:08;16.20;99.90
4811;DHT22;2419;51.276;6.472;2023-10-09T01:02:52;16.30;99.90
4811;DHT22;2419;51.276;6.472;2023-10-09T01:05:38;16.30;99.90
4811;DHT22;2419;51.276;6.472;2023-10-09T01:08:12;16.20;99.90
4811;DHT22;2419;51.276;6.472;2023-10-09T01:10:52;16.20;99.90
4811;DHT22;2419;51.276;6.472;2023-10-09T01:13:23;16.30;99.90
4811;DHT22;2419;51.276;6.472;2023-10-09T01:16:06;16.30;99.90
4811;DHT22;2419;51.276;6.472;2023-10-09T01:18:41;16.30;99.90
4811;DHT22;2419;51.276;6.472;2023-10-09T01:21:11;16.30;99.90
4811;DHT22;2419;51.276;6.472;2023-10-09T01:23:43;16.20;99.90
4811;DHT22;2419;51.276;6.472;2023-10-09T01:26:32;16.20;99.90
4811;DHT22;2419;51.276;6.472;2023-10-09T01:29:06;16.20;99.90
4811;DHT22;2419;51.276;6.472;2023-10-09T01:31:37;16.20;99.90
4811;DHT22;2419;51.276;6.472;2023-10-09T01:34:10;16.20;99.90
4811;DHT22;2419;51.276;6.472;2023-10-09T01:36:41;16.20;99.90
4811;DHT22;2419;51.276;6.472;2023-10-09T01:39:10;16.20;99.90
4811;DHT22;2419;51.276;6.472;2023-10-09T01:41:50;16.10;99.90
4811;DHT22;2419;51.276;6.472;2023-10-09T01:44:28;16.00;99.90
4811;DHT22;2419;51.276;6.472;2023-10-09T01:47:01;16.00;99.90
4811;DHT22;2419;51.276;6.472;2023-10-09T01:49:34;16.10;99.90
4811;DHT22;2419;51.276;6.472;2023-10-09T01:52:04;16.00;99.90
4811;DHT22;2419;51.276;6.472;2023-10-09T01:54:45;16.00;99.90
4811;DHT22;2419;51.276;6.472;2023-10-09T01:57:17;16.00;99.90
4811;DHT22;2419;51.276;6.472;2023-10-09T01:59:50;16.00;99.90
4811;DHT22;2419;51.276;6.472;2023-10-09T02:02:21;15.90;99.90
4811;DHT22;2419;51.276;6.472;2023-10-09T02:04:56;15.80;99.90
4811;DHT22;2419;51.276;6.472;2023-10-09T02:07:34;15.90;99.90
4811;DHT22;2419;51.276;6.472;2023-10-09T02:10:11;15.90;99.90
4811;DHT22;2419;51.276;6.472;2023-10-09T02:12:52;15.90;99.90
4811;DHT22;2419;51.276;6.472;2023-10-09T02:15:25;15.90;99.90
4811;DHT22;2419;51.276;6.472;2023-10-09T02:18:13;16.00;99.90
4811;DHT22;2419;51.276;6.472;2023-10-09T02:20:45;16.00;99.90
4811;DHT22;2419;51.276;6.472;2023-10-09T02:23:14;16.00;99.90
4811;DHT22;2419;51.276;6.472;2023-10-09T02:25:45;16.00;99.90
4811;DHT22;2419;51.276;6.472;2023-10-09T02:28:14;16.00;99.90
4811;DHT22;2419;51.276;6.472;2023-10-09T02:30:45;16.20;99.90
4811;DHT22;2419;51.276;6.472;2023-10-09T02:33:14;16.10;99.90
4811;DHT22;2419;51.276;6.472;2023-10-09T02:35:54;16.10;99.90
4811;DHT22;2419;51.276;6.472;2023-10-09T02:38:26;16.10;99.90
4811;DHT22;2419;51.276;6.472;2023-10-09T02:40:55;16.10;99.90
4811;DHT22;2419;51.276;6.472;2023-10-09T02:43:47;16.20;99.90
4811;DHT22;2419;51.276;6.472;2023-10-09T02:46:18;16.20;99.90
4811;DHT22;2419;51.276;6.472;2023-10-09T02:48:48;16.20;99.90
4811;DHT22;2419;51.276;6.472;2023-10-09T02:51:18;16.20;99.90
4811;DHT22;2419;51.276;6.472;2023-10-09T02:54:01;16.30;99.90
4811;DHT22;2419;51.276;6.472;2023-10-09T02:56:46;16.20;99.90
4811;DHT22;2419;51.276;6.472;2023-10-09T02:59:22;16.20;99.90
4811;DHT22;2419;51.276;6.472;2023-10-09T03:01:50;16.20;99.90
4811;DHT22;2419;51.276;6.472;2023-10-09T03:04:19;16.20;99.90
4811;DHT22;2419;51.276;6.472;2023-10-09T03:06:51;16.20;99.90
4811;DHT22;2419;51.276;6.472;2023-10-09T03:09:24;16.30;99.90
4811;DHT22;2419;51.276;6.472;2023-10-09T03:11:58;16.30;99.90
4811;DHT22;2419;51.276;6.472;2023-10-09T03:14:30;16.30;99.90
4811;DHT22;2419;51.276;6.472;2023-10-09T03:16:59;16.40;99.90
4811;DHT22;2419;51.276;6.472;2023-10-09T03:19:28;16.40;99.90
4811;DHT22;2419;51.276;6.472;2023-10-09T03:21:56;16.40;99.90
4811;DHT22;2419;51.276;6.472;2023-10-09T03:24:25;16.30;99.90
4811;DHT22;2419;51.276;6.472;2023-10-09T03:26:56;16.30;99.90
4811;DHT22;2419;51.276;6.472;2023-10-09T03:29:24;16.30;99.90
4811;DHT22;2419;51.276;6.472;2023-10-09T03:31:54;16.30;99.90
4811;DHT22;2419;51.276;6.472;2023-10-09T03:34:24;16.40;99.90
4811;DHT22;2419;51.276;6.472;2023-10-09T03:36:52;16.40;99.90
4811;DHT22;2419;51.276;6.472;2023-10-09T03:39:31;16.40;99.90
4811;DHT22;2419;51.276;6.472;2023-10-09T03:42:07;16.40;99.90
4811;DHT22;2419;51.276;6.472;2023-10-09T03:44:45;16.40;99.90
4811;DHT22;2419;51.276;6.472;2023-10-09T03:47:19;16.40;99.90
4811;DHT22;2419;51.276;6.472;2023-10-09T03:49:49;16.40;99.90
4811;DHT22;2419;51.276;6.472;2023-10-09T03:52:20;16.40;99.90
4811;DHT22;2419;51.276;6.472;2023-10-09T03:54:52;16.40;99.90
4811;DHT22;2419;51.276;6.472;2023-10-09T03:57:23;16.40;99.90
4811;DHT22;2419;51.276;6.472;2023-10-09T03:59:51;16.40;99.90
4811;DHT22;2419;51.276;6.472;2023-10-09T04:02:22;16.30;99.90
4811;DHT22;2419;51.276;6.472;2023-10-09T04:04:50;16.40;99.90
4811;DHT22;2419;51.276;6.472;2023-10-09T04:07:18;16.40;99.90
4811;DHT22;2419;51.276;6.472;2023-10-09T04:09:48;16.40;99.90
4811;DHT22;2419;51.276;6.472;2023-10-09T04:12:22;16.40;99.90
4811;DHT22;2419;51.276;6.472;2023-10-09T04:14:52;16.40;99.90
4811;DHT22;2419;51.276;6.472;2023-10-09T04:17:25;16.40;99.90
4811;DHT22;2419;51.276;6.472;2023-10-09T04:20:03;16.40;99.90
4811;DHT22;2419;51.276;6.472;2023-10-09T04:22:49;16.40;99.90
4811;DHT22;2419;51.276;6.472;2023-10-09T04:25:19;16.30;99.90
4811;DHT22;2419;51.276;6.472;2023-10-09T04:27:54;16.30;99.90
4811;DHT22;2419;51.276;6.472;2023-10-09T04:30:36;16.30;99.90
4811;DHT22;2419;51.276;6.472;2023-10-09T04:33:08;16.40;99.90
4811;DHT22;2419;51.276;6.472;2023-10-09T04:35:55;16.40;99.90
4811;DHT22;2419;51.276;6.472;2023-10-09T04:38:43;16.40;99.90
4811;DHT22;2419;51.276;6.472;2023-10-09T04:41:23;16.30;99.90
4811;DHT22;2419;51.276;6.472;2023-10-09T04:44:02;16.30;99.90
4811;DHT22;2419;51.276;6.472;2023-10-09T04:46:46;16.20;99.90
4811;DHT22;2419;51.276;6.472;2023-10-09T04:49:45;16.30;99.90
4811;DHT22;2419;51.276;6.472;2023-10-09T04:52:28;16.20;99.90
4811;DHT22;2419;51.276;6.472;2023-10-09T04:55:13;16.30;99.90
4811;DHT22;2419;51.276;6.472;2023-10-09T04:57:46;16.30;99.90
4811;DHT22;2419;51.276;6.472;2023-10-09T05:00:30;16.20;99.90
4811;DHT22;2419;51.276;6.472;2023-10-09T05:03:36;16.20;99.90
4811;DHT22;2419;51.276;6.472;2023-10-09T05:06:23;16.30;99.90
4811;DHT22;2419;51.276;6.472;2023-10-09T05:09:22;16.30;99.90
4811;DHT22;2419;51.276;6.472;2023-10-09T05:11:49;16.30;99.90
4811;DHT22;2419;51.276;6.472;2023-10-09T05:14:35;16.30;99.90
4811;DHT22;2419;51.276;6.472;2023-10-09T05:17:22;16.20;99.90
4811;DHT22;2419;51.276;6.472;2023-10-09T05:19:52;16.20;99.90
4811;DHT22;2419;51.276;6.472;2023-10-09T05:22:43;16.20;99.90
4811;DHT22;2419;51.276;6.472;2023-10-09T05:25:24;16.10;99.90
4811;DHT22;2419;51.276;6.472;2023-10-09T05:28:06;16.10;99.90
4811;DHT22;2419;51.276;6.472;2023-10-09T05:30:48;16.10;99.90
4811;DHT22;2419;51.276;6.472;2023-10-09T05:33:23;16.00;99.90
4811;DHT22;2419;51.276;6.472;2023-10-09T05:36:02;16.00;99.90
4811;DHT22;2419;51.276;6.472;2023-10-09T05:38:41;16.10;99.90
4811;DHT22;2419;51.276;6.472;2023-10-09T05:41:14;16.10;99.90
4811;DHT22;2419;51.276;6.472;2023-10-09T05:44:14;16.00;99.90
4811;DHT22;2419;51.276;6.472;2023-10-09T05:47:00;16.00;99.90
4811;DHT22;2419;51.276;6.472;2023-10-09T05:49:47;16.10;99.90
4811;DHT22;2419;51.276;6.472;2023-10-09T05:52:22;16.10;99.90
4811;DHT22;2419;51.276;6.472;2023-10-09T05:55:19;16.10;99.90
4811;DHT22;2419;51.276;6.472;2023-10-09T05:58:08;16.20;99.90
4811;DHT22;2419;51.276;6.472;2023-10-09T06:00:54;16.20;99.90
4811;DHT22;2419;51.276;6.472;2023-10-09T06:03:40;16.10;99.90
4811;DHT22;2419;51.276;6.472;2023-10-09T06:06:23;16.20;99.90
4811;DHT22;2419;51.276;6.472;2023-10-09T06:09:11;16.20;99.90
4811;DHT22;2419;51.276;6.472;2023-10-09T06:12:16;16.10;99.90
4811;DHT22;2419;51.276;6.472;2023-10-09T06:15:21;16.10;99.90
4811;DHT22;2419;51.276;6.472;2023-10-09T06:18:18;16.20;99.90
4811;DHT22;2419;51.276;6.472;2023-10-09T06:21:00;16.20;99.90
4811;DHT22;2419;51.276;6.472;2023-10-09T06:23:59;16.20;99.90
4811;DHT22;2419;51.276;6.472;2023-10-09T06:26:36;16.30;99.90
4811;DHT22;2419;51.276;6.472;2023-10-09T06:29:08;16.30;99.90
4811;DHT22;2419;51.276;6.472;2023-10-09T06:31:42;16.30;99.90
4811;DHT22;2419;51.276;6.472;2023-10-09T06:34:29;16.30;99.90
4811;DHT22;2419;51.276;6.472;2023-10-09T06:37:02;16.30;99.90
4811;DHT22;2419;51.276;6.472;2023-10-09T06:39:45;16.30;99.90
4811;DHT22;2419;51.276;6.472;2023-10-09T06:42:33;16.30;99.90
4811;DHT22;2419;51.276;6.472;2023-10-09T06:45:14;16.30;99.90
4811;DHT22;2419;51.276;6.472;2023-10-09T06:47:46;16.40;99.90
4811;DHT22;2419;51.276;6.472;2023-10-09T06:50:23;16.40;99.90
4811;DHT22;2419;51.276;6.472;2023-10-09T06:53:14;16.50;99.90
4811;DHT22;2419;51.276;6.472;2023-10-09T06:55:54;16.50;99.90
4811;DHT22;2419;51.276;6.472;2023-10-09T06:58:32;16.40;99.90
4811;DHT22;2419;51.276;6.472;2023-10-09T07:01:09;16.50;99.90
4811;DHT22;2419;51.276;6.472;2023-10-09T07:03:55;16.40;99.90
4811;DHT22;2419;51.276;6.472;2023-10-09T07:06:37;16.40;99.90
4811;DHT22;2419;51.276;6.472;2023-10-09T07:09:18;16.50;99.90
4811;DHT22;2419;51.276;6.472;2023-10-09T07:11:50;16.50;99.90
4811;DHT22;2419;51.276;6.472;2023-10-09T07:14:24;16.50;99.90
4811;DHT22;2419;51.276;6.472;2023-10-09T07:17:12;16.50;99.90
4811;DHT22;2419;51.276;6.472;2023-10-09T07:20:10;16.60;99.90
4811;DHT22;2419;51.276;6.472;2023-10-09T07:22:42;16.60;99.90
4811;DHT22;2419;51.276;6.472;2023-10-09T07:25:40;16.60;99.90
4811;DHT22;2419;51.276;6.472;2023-10-09T07:28:11;16.60;99.90
4811;DHT22;2419;51.276;6.472;2023-10-09T07:31:03;16.60;99.90
4811;DHT22;2419;51.276;6.472;2023-10-09T07:33:36;16.70;99.90
4811;DHT22;2419;51.276;6.472;2023-10-09T07:36:18;16.70;99.90
4811;DHT22;2419;51.276;6.472;2023-10-09T07:39:01;16.80;99.90
4811;DHT22;2419;51.276;6.472;2023-10-09T07:41:37;16.80;99.90
4811;DHT22;2419;51.276;6.472;2023-10-09T07:44:12;16.80;99.90
4811;DHT22;2419;51.276;6.472;2023-10-09T07:46:58;16.80;99.90
4811;DHT22;2419;51.276;6.472;2023-10-09T07:49:56;16.80;99.90
4811;DHT22;2419;51.276;6.472;2023-10-09T07:52:26;16.80;99.90
4811;DHT22;2419;51.276;6.472;2023-10-09T07:54:54;16.80;99.90
4811;DHT22;2419;51.276;6.472;2023-10-09T07:57:29;16.80;99.90
4811;DHT22;2419;51.276;6.472;2023-10-09T08:00:06;16.90;99.90
4811;DHT22;2419;51.276;6.472;2023-10-09T08:03:02;17.00;99.90
4811;DHT22;2419;51.276;6.472;2023-10-09T08:05:37;17.00;99.90
4811;DHT22;2419;51.276;6.472;2023-10-09T08:08:11;17.00;99.90
4811;DHT22;2419;51.276;6.472;2023-10-09T08:11:07;17.00;99.90
4811;DHT22;2419;51.276;6.472;2023-10-09T08:14:01;17.10;99.90
4811;DHT22;2419;51.276;6.472;2023-10-09T08:16:30;17.10;99.90
4811;DHT22;2419;51.276;6.472;2023-10-09T08:19:04;17.20;99.90
4811;DHT22;2419;51.276;6.472;2023-10-09T08:21:59;17.30;99.90
4811;DHT22;2419;51.276;6.472;2023-10-09T08:25:04;17.40;99.90
4811;DHT22;2419;51.276;6.472;2023-10-09T08:27:36;17.40;99.90
4811;DHT22;2419;51.276;6.472;2023-10-09T08:30:21;17.40;99.90
4811;DHT22;2419;51.276;6.472;2023-10-09T08:33:12;17.30;99.90
4811;DHT22;2419;51.276;6.472;2023-10-09T08:36:01;17.40;99.90
4811;DHT22;2419;51.276;6.472;2023-10-09T08:38:34;17.40;99.90
4811;DHT22;2419;51.276;6.472;2023-10-09T08:41:10;17.40;99.90
4811;DHT22;2419;51.276;6.472;2023-10-09T08:43:48;17.20;99.90
4811;DHT22;2419;51.276;6.472;2023-10-09T08:46:22;17.30;99.90
4811;DHT22;2419;51.276;6.472;2023-10-09T08:48:55;17.30;99.90
4811;DHT22;2419;51.276;6.472;2023-10-09T08:51:25;17.30;99.90
4811;DHT22;2419;51.276;6.472;2023-10-09T08:53:55;17.30;99.90
4811;DHT22;2419;51.276;6.472;2023-10-09T08:56:23;17.40;99.90
4811;DHT22;2419;51.276;6.472;2023-10-09T08:58:52;17.50;99.90
4811;DHT22;2419;51.276;6.472;2023-10-09T09:01:21;17.60;99.90
4811;DHT22;2419;51.276;6.472;2023-10-09T09:03:53;17.60;99.90
4811;DHT22;2419;51.276;6.472;2023-10-09T09:06:22;17.60;99.90
4811;DHT22;2419;51.276;6.472;2023-10-09T09:08:51;17.60;99.90
4811;DHT22;2419;51.276;6.472;2023-10-09T09:11:27;17.50;99.90
4811;DHT22;2419;51.276;6.472;2023-10-09T09:14:04;17.50;99.90
4811;DHT22;2419;51.276;6.472;2023-10-09T09:16:34;17.50;99.90
4811;DHT22;2419;51.276;6.472;2023-10-09T09:19:05;17.50;99.90
4811;DHT22;2419;51.276;6.472;2023-10-09T09:21:49;17.60;99.90
4811;DHT22;2419;51.276;6.472;2023-10-09T09:24:22;17.80;99.90
4811;DHT22;2419;51.276;6.472;2023-10-09T09:27:05;17.70;99.90
4811;DHT22;2419;51.276;6.472;2023-10-09T09:29:46;17.80;99.90
4811;DHT22;2419;51.276;6.472;2023-10-09T09:32:28;18.10;99.90
4811;DHT22;2419;51.276;6.472;2023-10-09T09:35:03;18.30;99.90
4811;DHT22;2419;51.276;6.472;2023-10-09T09:37:33;18.40;99.90
4811;DHT22;2419;51.276;6.472;2023-10-09T09:40:17;18.40;99.90
4811;DHT22;2419;51.276;6.472;2023-10-09T09:43:02;18.50;99.90
4811;DHT22;2419;51.276;6.472;2023-10-09T09:45:35;18.60;99.90
4811;DHT22;2419;51.276;6.472;2023-10-09T09:48:04;18.90;99.90
4811;DHT22;2419;51.276;6.472;2023-10-09T09:50:33;18.90;99.90
4811;DHT22;2419;51.276;6.472;2023-10-09T09:53:10;19.00;99.90
4811;DHT22;2419;51.276;6.472;2023-10-09T09:55:46;19.00;99.90
4811;DHT22;2419;51.276;6.472;2023-10-09T09:58:25;19.00;99.90
4811;DHT22;2419;51.276;6.472;2023-10-09T10:01:03;19.10;99.90
4811;DHT22;2419;51.276;6.472;2023-10-09T10:03:45;19.40;99.90
4811;DHT22;2419;51.276;6.472;2023-10-09T10:06:18;19.50;99.90
4811;DHT22;2419;51.276;6.472;2023-10-09T10:08:48;19.50;99.90
4811;DHT22;2419;51.276;6.472;2023-10-09T10:11:43;19.40;99.90
4811;DHT22;2419;51.276;6.472;2023-10-09T10:14:14;19.60;99.90
4811;DHT22;2419;51.276;6.472;2023-10-09T10:17:05;19.80;99.90
4811;DHT22;2419;51.276;6.472;2023-10-09T10:20:00;19.70;99.90
4811;DHT22;2419;51.276;6.472;2023-10-09T10:22:50;19.80;99.90
4811;DHT22;2419;51.276;6.472;2023-10-09T10:25:32;19.80;99.90
4811;DHT22;2419;51.276;6.472;2023-10-09T10:28:19;19.60;99.90
4811;DHT22;2419;51.276;6.472;2023-10-09T10:31:04;19.50;99.90
4811;DHT22;2419;51.276;6.472;2023-10-09T10:34:04;19.60;99.90
4811;DHT22;2419;51.276;6.472;2023-10-09T10:36:37;19.70;99.90
4811;DHT22;2419;51.276;6.472;2023-10-09T10:39:09;19.70;99.90
4811;DHT22;2419;51.276;6.472;2023-10-09T10:41:39;19.70;99.90
4811;DHT22;2419;51.276;6.472;2023-10-09T10:44:28;19.80;99.90
4811;DHT22;2419;51.276;6.472;2023-10-09T10:47:05;20.00;99.90
4811;DHT22;2419;51.276;6.472;2023-10-09T10:49:50;20.10;99.90
4811;DHT22;2419;51.276;6.472;2023-10-09T10:52:21;19.90;99.90
4811;DHT22;2419;51.276;6.472;2023-10-09T10:55:10;20.10;99.90
4811;DHT22;2419;51.276;6.472;2023-10-09T10:58:15;20.30;99.90
4811;DHT22;2419;51.276;6.472;2023-10-09T11:00:54;20.40;99.90
4811;DHT22;2419;51.276;6.472;2023-10-09T11:03:42;20.20;99.90
4811;DHT22;2419;51.276;6.472;2023-10-09T11:06:26;20.40;99.90
4811;DHT22;2419;51.276;6.472;2023-10-09T11:09:04;20.60;99.90
4811;DHT22;2419;51.276;6.472;2023-10-09T11:11:50;20.70;99.90
4811;DHT22;2419;51.276;6.472;2023-10-09T11:14:22;20.60;99.90
4811;DHT22;2419;51.276;6.472;2023-10-09T11:16:50;20.30;99.90
4811;DHT22;2419;51.276;6.472;2023-10-09T11:19:26;20.20;99.90
4811;DHT22;2419;51.276;6.472;2023-10-09T11:22:00;20.20;99.90
4811;DHT22;2419;51.276;6.472;2023-10-09T11:24:48;20.40;99.90
4811;DHT22;2419;51.276;6.472;2023-10-09T11:27:27;20.60;99.90
4811;DHT22;2419;51.276;6.472;2023-10-09T11:29:59;20.80;99.90
4811;DHT22;2419;51.276;6.472;2023-10-09T11:33:04;21.00;99.90
4811;DHT22;2419;51.276;6.472;2023-10-09T11:35:33;20.90;99.90
4811;DHT22;2419;51.276;6.472;2023-10-09T11:38:03;20.90;99.90
4811;DHT22;2419;51.276;6.472;2023-10-09T11:40:48;21.20;99.90
4811;DHT22;2419;51.276;6.472;2023-10-09T11:43:46;21.30;99.90
4811;DHT22;2419;51.276;6.472;2023-10-09T11:46:20;21.50;99.90
4811;DHT22;2419;51.276;6.472;2023-10-09T11:49:06;21.70;99.90
4811;DHT22;2419;51.276;6.472;2023-10-09T11:52:07;21.90;99.90
4811;DHT22;2419;51.276;6.472;2023-10-09T11:54:52;21.90;99.90
4811;DHT22;2419;51.276;6.472;2023-10-09T11:57:24;22.10;99.90
4811;DHT22;2419;51.276;6.472;2023-10-09T11:59:57;22.50;99.90
4811;DHT22;2419;51.276;6.472;2023-10-09T12:02:29;22.50;99.90
4811;DHT22;2419;51.276;6.472;2023-10-09T12:04:58;22.40;99.90
4811;DHT22;2419;51.276;6.472;2023-10-09T12:07:27;22.40;99.90
4811;DHT22;2419;51.276;6.472;2023-10-09T12:09:56;22.20;99.90
4811;DHT22;2419;51.276;6.472;2023-10-09T12:12:24;22.00;99.90
4811;DHT22;2419;51.276;6.472;2023-10-09T12:14:54;22.00;99.90
4811;DHT22;2419;51.276;6.472;2023-10-09T12:17:22;21.90;99.90
4811;DHT22;2419;51.276;6.472;2023-10-09T12:19:52;21.80;99.90
4811;DHT22;2419;51.276;6.472;2023-10-09T12:22:23;21.90;99.90
4811;DHT22;2419;51.276;6.472;2023-10-09T12:24:55;21.80;99.90
4811;DHT22;2419;51.276;6.472;2023-10-09T12:27:24;21.50;99.90
4811;DHT22;2419;51.276;6.472;2023-10-09T12:29:52;21.20;99.90
4811;DHT22;2419;51.276;6.472;2023-10-09T12:32:23;21.00;99.90
4811;DHT22;2419;51.276;6.472;2023-10-09T12:34:51;21.20;99.90
4811;DHT22;2419;51.276;6.472;2023-10-09T12:37:20;21.10;99.90
4811;DHT22;2419;51.276;6.472;2023-10-09T12:39:48;21.30;99.90
4811;DHT22;2419;51.276;6.472;2023-10-09T12:42:23;21.10;99.90
4811;DHT22;2419;51.276;6.472;2023-10-09T12:44:54;21.10;99.90
4811;DHT22;2419;51.276;6.472;2023-10-09T12:47:24;21.00;99.90
4811;DHT22;2419;51.276;6.472;2023-10-09T12:49:53;21.00;99.90
4811;DHT22;2419;51.276;6.472;2023-10-09T12:52:21;21.20;99.90
4811;DHT22;2419;51.276;6.472;2023-10-09T12:54:56;21.20;99.90
4811;DHT22;2419;51.276;6.472;2023-10-09T12:57:26;21.30;99.90
4811;DHT22;2419;51.276;6.472;2023-10-09T12:59:54;21.10;99.90
4811;DHT22;2419;51.276;6.472;2023-10-09T13:02:22;21.10;99.90
4811;DHT22;2419;51.276;6.472;2023-10-09T13:04:57;21.00;99.90
4811;DHT22;2419;51.276;6.472;2023-10-09T13:07:27;21.10;99.90
4811;DHT22;2419;51.276;6.472;2023-10-09T13:09:55;21.00;99.90
4811;DHT22;2419;51.276;6.472;2023-10-09T13:12:37;20.90;99.90
4811;DHT22;2419;51.276;6.472;2023-10-09T13:15:09;20.80;99.90
4811;DHT22;2419;51.276;6.472;2023-10-09T13:17:38;20.90;99.90
4811;DHT22;2419;51.276;6.472;2023-10-09T13:20:07;20.70;99.90
4811;DHT22;2419;51.276;6.472;2023-10-09T13:22:40;20.80;99.90
4811;DHT22;2419;51.276;6.472;2023-10-09T13:25:09;20.70;99.90
4811;DHT22;2419;51.276;6.472;2023-10-09T13:28:01;20.60;99.90
4811;DHT22;2419;51.276;6.472;2023-10-09T13:30:31;20.80;99.90
4811;DHT22;2419;51.276;6.472;2023-10-09T13:33:06;21.00;99.90
4811;DHT22;2419;51.276;6.472;2023-10-09T13:35:36;21.30;99.90
4811;DHT22;2419;51.276;6.472;2023-10-09T13:38:07;21.50;99.90
4811;DHT22;2419;51.276;6.472;2023-10-09T13:40:37;21.50;99.90
4811;DHT22;2419;51.276;6.472;2023-10-09T13:43:06;21.50;99.90
4811;DHT22;2419;51.276;6.472;2023-10-09T13:45:41;21.60;99.90
4811;DHT22;2419;51.276;6.472;2023-10-09T13:48:16;21.60;99.90
4811;DHT22;2419;51.276;6.472;2023-10-09T13:50:47;21.40;99.90
4811;DHT22;2419;51.276;6.472;2023-10-09T13:53:16;21.40;99.90
4811;DHT22;2419;51.276;6.472;2023-10-09T13:55:44;21.40;99.90
4811;DHT22;2419;51.276;6.472;2023-10-09T13:58:15;21.50;99.90
4811;DHT22;2419;51.276;6.472;2023-10-09T14:00:48;21.30;99.90
4811;DHT22;2419;51.276;6.472;2023-10-09T14:03:16;21.10;99.90
4811;DHT22;2419;51.276;6.472;2023-10-09T14:05:47;21.40;99.90
4811;DHT22;2419;51.276;6.472;2023-10-09T14:08:21;21.60;99.90
4811;DHT22;2419;51.276;6.472;2023-10-09T14:10:50;21.70;99.90
4811;DHT22;2419;51.276;6.472;2023-10-09T14:13:19;21.70;99.90
4811;DHT22;2419;51.276;6.472;2023-10-09T14:15:53;21.60;99.90
4811;DHT22;2419;51.276;6.472;2023-10-09T14:18:24;21.70;99.90
4811;DHT22;2419;51.276;6.472;2023-10-09T14:21:01;21.80;99.90
4811;DHT22;2419;51.276;6.472;2023-10-09T14:23:44;21.70;99.90
4811;DHT22;2419;51.276;6.472;2023-10-09T14:26:17;21.60;99.90
4811;DHT22;2419;51.276;6.472;2023-10-09T14:28:51;21.50;99.90
4811;DHT22;2419;51.276;6.472;2023-10-09T14:31:20;21.50;99.90
4811;DHT22;2419;51.276;6.472;2023-10-09T14:33:54;21.50;99.90
4811;DHT22;2419;51.276;6.472;2023-10-09T14:36:24;21.40;99.90
4811;DHT22;2419;51.276;6.472;2023-10-09T14:39:00;21.30;99.90
4811;DHT22;2419;51.276;6.472;2023-10-09T14:41:28;21.20;99.90
4811;DHT22;2419;51.276;6.472;2023-10-09T14:44:01;21.20;99.90
4811;DHT22;2419;51.276;6.472;2023-10-09T14:46:29;21.30;99.90
4811;DHT22;2419;51.276;6.472;2023-10-09T14:48:57;21.30;99.90
4811;DHT22;2419;51.276;6.472;2023-10-09T14:51:31;21.30;99.90
4811;DHT22;2419;51.276;6.472;2023-10-09T14:53:59;21.30;99.90
4811;DHT22;2419;51.276;6.472;2023-10-09T14:56:28;21.30;99.90
4811;DHT22;2419;51.276;6.472;2023-10-09T14:58:57;21.20;99.90
4811;DHT22;2419;51.276;6.472;2023-10-09T15:01:27;21.10;99.90
4811;DHT22;2419;51.276;6.472;2023-10-09T15:03:58;21.00;99.90
4811;DHT22;2419;51.276;6.472;2023-10-09T15:06:27;21.00;99.90
4811;DHT22;2419;51.276;6.472;2023-10-09T15:08:57;21.00;99.90
4811;DHT22;2419;51.276;6.472;2023-10-09T15:11:27;20.90;99.90
4811;DHT22;2419;51.276;6.472;2023-10-09T15:13:56;20.90;99.90
4811;DHT22;2419;51.276;6.472;2023-10-09T15:16:27;20.80;99.90
4811;DHT22;2419;51.276;6.472;2023-10-09T15:18:57;20.80;99.90
4811;DHT22;2419;51.276;6.472;2023-10-09T15:21:31;20.80;99.90
4811;DHT22;2419;51.276;6.472;2023-10-09T15:24:00;20.90;99.90
4811;DHT22;2419;51.276;6.472;2023-10-09T15:26:28;20.80;99.90
4811;DHT22;2419;51.276;6.472;2023-10-09T15:29:01;20.80;99.90
4811;DHT22;2419;51.276;6.472;2023-10-09T15:31:32;20.80;99.90
4811;DHT22;2419;51.276;6.472;2023-10-09T15:34:01;20.90;99.90
4811;DHT22;2419;51.276;6.472;2023-10-09T15:36:29;20.80;99.90
4811;DHT22;2419;51.276;6.472;2023-10-09T15:38:58;20.80;99.90
4811;DHT22;2419;51.276;6.472;2023-10-09T15:41:28;20.80;99.90
4811;DHT22;2419;51.276;6.472;2023-10-09T15:43:58;20.60;99.90
4811;DHT22;2419;51.276;6.472;2023-10-09T15:46:28;20.50;99.90
4811;DHT22;2419;51.276;6.472;2023-10-09T15:49:02;20.40;99.90
4811;DHT22;2419;51.276;6.472;2023-10-09T15:51:30;20.30;99.90
4811;DHT22;2419;51.276;6.472;2023-10-09T15:53:59;20.20;99.90
4811;DHT22;2419;51.276;6.472;2023-10-09T15:56:28;20.10;99.90
4811;DHT22;2419;51.276;6.472;2023-10-09T15:58:56;20.00;99.90
4811;DHT22;2419;51.276;6.472;2023-10-09T16:01:24;19.90;99.90
4811;DHT22;2419;51.276;6.472;2023-10-09T16:03:52;19.80;99.90
4811;DHT22;2419;51.276;6.472;2023-10-09T16:06:21;19.80;99.90
4811;DHT22;2419;51.276;6.472;2023-10-09T16:08:53;19.70;99.90
4811;DHT22;2419;51.276;6.472;2023-10-09T16:11:22;19.60;99.90
4811;DHT22;2419;51.276;6.472;2023-10-09T16:13:51;19.50;99.90
4811;DHT22;2419;51.276;6.472;2023-10-09T16:16:27;19.50;99.90
4811;DHT22;2419;51.276;6.472;2023-10-09T16:18:56;19.30;99.90
4811;DHT22;2419;51.276;6.472;2023-10-09T16:21:26;19.30;99.90
4811;DHT22;2419;51.276;6.472;2023-10-09T16:23:54;19.20;99.90
4811;DHT22;2419;51.276;6.472;2023-10-09T16:26:22;19.10;99.90
4811;DHT22;2419;51.276;6.472;2023-10-09T16:28:51;19.10;99.90
4811;DHT22;2419;51.276;6.472;2023-10-09T16:31:19;19.10;99.90
4811;DHT22;2419;51.276;6.472;2023-10-09T16:33:50;19.10;99.90
4811;DHT22;2419;51.276;6.472;2023-10-09T16:36:18;19.00;99.90
4811;DHT22;2419;51.276;6.472;2023-10-09T16:38:49;19.00;99.90
4811;DHT22;2419;51.276;6.472;2023-10-09T16:41:18;19.00;99.90
4811;DHT22;2419;51.276;6.472;2023-10-09T16:43:46;19.00;99.90
4811;DHT22;2419;51.276;6.472;2023-10-09T16:46:15;18.90;99.90
4811;DHT22;2419;51.276;6.472;2023-10-09T16:48:43;18.90;99.90
4811;DHT22;2419;51.276;6.472;2023-10-09T16:51:18;18.90;99.90
4811;DHT22;2419;51.276;6.472;2023-10-09T16:53:50;18.90;99.90
4811;DHT22;2419;51.276;6.472;2023-10-09T16:56:19;18.90;99.90
4811;DHT22;2419;51.276;6.472;2023-10-09T16:58:48;18.90;99.90